Time;durP1;ratioP1;P1;durP2;ratioP2;P2;SDS_P1;SDS_P2;PMS_P1;PMS_P2;Temp;Humidity;BMP_temperature;BMP_pressure;BME280_temperature;BME280_humidity;BME280_pressure;Samples;Min_cycle;Max_cycle;Signal;HPM_P1;HPM_P2
2023/09/25 00:01:32;;;;;;;0.20;0.20;;;;;;;22.06;47.17;102223.53;5071918;28;20040;-72
2023/09/25 00:03:58;;;;;;;0.20;0.20;;;;;;;22.03;46.71;102224.91;5054307;28;20032;-72
2023/09/25 00:06:24;;;;;;;0.20;0.20;;;;;;;21.80;47.46;102223.41;5072025;28;20028;-71
2023/09/25 00:08:49;;;;;;;0.30;0.30;;;;;;;22.04;46.80;102222.97;5072291;28;20029;-72
2023/09/25 00:11:14;;;;;;;0.17;0.17;;;;;;;21.81;47.44;102225.09;5071059;28;20040;-72
2023/09/25 00:13:40;;;;;;;0.10;0.10;;;;;;;21.88;46.88;102232.22;5070863;28;20039;-72
2023/09/25 00:16:07;;;;;;;0.20;0.20;;;;;;;22.02;46.74;102227.91;5070926;28;20711;-71
2023/09/25 00:18:32;;;;;;;0.10;0.10;;;;;;;21.96;47.09;102224.31;5071121;28;20525;-72
2023/09/25 00:20:58;;;;;;;0.13;0.13;;;;;;;21.93;47.20;102233.06;5070773;28;20037;-72
2023/09/25 00:23:23;;;;;;;0.10;0.10;;;;;;;21.83;48.10;102228.38;5069825;28;20040;-73
2023/09/25 00:25:50;;;;;;;0.10;0.10;;;;;;;22.00;47.43;102236.38;5054310;28;20050;-72
2023/09/25 00:28:16;;;;;;;0.10;0.10;;;;;;;22.04;47.12;102231.19;5041975;28;20420;-72
2023/09/25 00:30:41;;;;;;;0.10;0.10;;;;;;;21.89;47.51;102228.38;5031884;28;20125;-73
2023/09/25 00:33:06;;;;;;;0.20;0.20;;;;;;;21.79;47.92;102224.50;5033423;28;20040;-73
2023/09/25 00:35:32;;;;;;;0.10;0.10;;;;;;;21.83;47.72;102224.81;5051073;28;20627;-72
2023/09/25 00:37:57;;;;;;;0.20;0.20;;;;;;;21.64;48.10;102223.59;5064928;28;20043;-72
2023/09/25 00:40:24;;;;;;;0.10;0.10;;;;;;;21.63;48.28;102227.41;5052326;28;20071;-73
2023/09/25 00:42:53;;;;;;;0.20;0.20;;;;;;;21.72;48.03;102223.06;5049642;28;20040;-72
2023/09/25 00:45:19;;;;;;;0.10;0.10;;;;;;;21.74;47.58;102229.94;5049660;28;20028;-71
2023/09/25 00:47:45;;;;;;;0.20;0.20;;;;;;;21.75;47.79;102228.03;5050023;28;20027;-73
2023/09/25 00:50:11;;;;;;;0.20;0.20;;;;;;;21.80;47.57;102233.50;5049586;28;20094;-73
2023/09/25 00:52:40;;;;;;;0.20;0.20;;;;;;;21.78;48.25;102232.94;5049780;28;20124;-72
2023/09/25 00:55:06;;;;;;;0.20;0.20;;;;;;;21.72;47.90;102231.28;5050060;28;20033;-72
2023/09/25 00:57:35;;;;;;;0.30;0.30;;;;;;;21.74;47.78;102231.84;5050541;28;20457;-73
2023/09/25 01:00:03;;;;;;;0.20;0.20;;;;;;;21.79;47.27;102227.22;5050768;28;20074;-72
2023/09/25 01:02:31;;;;;;;0.28;0.28;;;;;;;21.70;47.55;102227.97;5049623;28;20041;-72
2023/09/25 01:04:59;;;;;;;0.17;0.17;;;;;;;21.59;48.46;102223.53;5049566;28;20631;-72
2023/09/25 01:07:24;;;;;;;0.17;0.17;;;;;;;21.64;48.06;102226.31;5049337;28;20116;-72
2023/09/25 01:10:14;;;;;;;0.20;0.20;;;;;;;21.74;48.02;102231.84;5049242;28;20554;-71
2023/09/25 01:12:43;;;;;;;0.10;0.10;;;;;;;21.38;48.89;102219.88;5031359;28;20392;-71
2023/09/25 01:15:09;;;;;;;0.20;0.20;;;;;;;21.44;48.83;102220.72;5062366;28;20024;-71
2023/09/25 01:17:35;;;;;;;0.10;0.10;;;;;;;21.51;48.51;102229.50;5049584;28;20681;-72
2023/09/25 01:20:17;;;;;;;0.15;0.15;;;;;;;21.56;48.19;102229.56;5063858;28;20114;-71
2023/09/25 01:22:47;;;;;;;0.22;0.22;;;;;;;21.51;48.35;102216.66;5069488;28;20044;-72
2023/09/25 01:25:13;;;;;;;0.20;0.20;;;;;;;21.40;48.31;102223.16;5051381;28;20044;-73
2023/09/25 01:27:40;;;;;;;0.20;0.20;;;;;;;21.39;48.76;102218.78;5049509;28;20072;-72
2023/09/25 01:30:08;;;;;;;0.10;0.10;;;;;;;21.56;48.50;102218.63;5049509;28;20017;-72
2023/09/25 01:32:34;;;;;;;0.20;0.20;;;;;;;21.44;48.44;102215.25;5036126;28;20028;-72
2023/09/25 01:35:01;;;;;;;0.10;0.10;;;;;;;21.54;48.19;102220.78;5069203;28;20121;-73
2023/09/25 01:37:26;;;;;;;0.10;0.10;;;;;;;21.37;48.88;102214.66;5069228;28;20071;-72
2023/09/25 01:39:52;;;;;;;0.20;0.20;;;;;;;21.31;48.89;102218.44;5056192;28;20037;-73
2023/09/25 01:42:17;;;;;;;0.17;0.17;;;;;;;21.23;49.43;102213.47;5050106;28;20033;-73
2023/09/25 01:44:42;;;;;;;0.10;0.10;;;;;;;21.57;48.54;102209.31;5049414;28;20499;-72
2023/09/25 01:47:08;;;;;;;0.20;0.20;;;;;;;21.09;49.59;102220.47;5049609;28;20083;-72
2023/09/25 01:49:33;;;;;;;0.10;0.10;;;;;;;21.00;50.16;102212.72;5053092;28;20041;-71
2023/09/25 01:52:01;;;;;;;0.10;0.10;;;;;;;21.25;50.02;102216.75;5054637;28;20582;-71
2023/09/25 01:54:27;;;;;;;0.20;0.20;;;;;;;20.99;49.66;102218.44;5054100;28;20043;-71
2023/09/25 01:56:52;;;;;;;0.10;0.10;;;;;;;21.34;48.89;102213.28;5055116;28;20028;-71
2023/09/25 01:59:18;;;;;;;0.10;0.10;;;;;;;21.31;49.52;102210.22;5056071;28;20024;-71
2023/09/25 02:01:43;;;;;;;0.10;0.10;;;;;;;21.15;49.27;102211.22;5056333;28;20024;-71
2023/09/25 02:04:09;;;;;;;0.10;0.10;;;;;;;21.29;48.86;102212.41;5056593;28;20021;-71
2023/09/25 02:06:34;;;;;;;0.10;0.10;;;;;;;21.14;49.54;102207.66;5055855;28;20021;-72
2023/09/25 02:09:00;;;;;;;0.20;0.20;;;;;;;21.26;49.33;102197.38;5055936;28;20017;-72
2023/09/25 02:11:25;;;;;;;0.10;0.10;;;;;;;21.14;49.32;102206.84;5056119;28;20032;-72
2023/09/25 02:13:51;;;;;;;0.10;0.10;;;;;;;21.14;49.57;102196.72;5074502;28;20036;-72
2023/09/25 02:16:18;;;;;;;0.20;0.20;;;;;;;20.94;50.25;102193.78;5075668;28;20039;-71
2023/09/25 02:18:43;;;;;;;0.10;0.10;;;;;;;21.38;49.04;102181.59;5075918;28;20040;-72
2023/09/25 02:21:09;;;;;;;0.20;0.20;;;;;;;20.74;51.07;102188.97;5057575;28;20036;-73
2023/09/25 02:23:34;;;;;;;0.10;0.10;;;;;;;20.75;50.32;102185.19;5075512;28;20025;-72
2023/09/25 02:25:59;;;;;;;0.20;0.20;;;;;;;20.78;50.48;102183.81;5075327;28;20378;-72
2023/09/25 02:28:25;;;;;;;0.10;0.10;;;;;;;20.71;50.25;102180.50;5075218;28;20036;-72
2023/09/25 02:30:51;;;;;;;0.10;0.10;;;;;;;20.95;50.57;102188.06;5056070;28;20250;-72
2023/09/25 02:33:16;;;;;;;0.10;0.10;;;;;;;21.05;49.80;102190.06;5075481;28;20023;-73
2023/09/25 02:35:41;;;;;;;0.20;0.20;;;;;;;20.94;50.17;102183.69;5075126;28;20041;-71
2023/09/25 02:38:07;;;;;;;0.20;0.20;;;;;;;21.28;49.46;102184.25;5075244;28;20024;-72
2023/09/25 02:40:32;;;;;;;0.10;0.10;;;;;;;21.07;49.68;102187.09;5056847;28;20029;-72
2023/09/25 02:42:57;;;;;;;0.20;0.20;;;;;;;20.89;49.97;102172.72;5075176;28;20111;-72
2023/09/25 02:45:23;;;;;;;0.20;0.20;;;;;;;21.07;49.99;102179.72;5074407;28;20057;-72
2023/09/25 02:47:48;;;;;;;0.30;0.30;;;;;;;21.08;49.67;102178.63;5074991;28;20049;-73
2023/09/25 02:50:15;;;;;;;0.30;0.30;;;;;;;21.11;49.32;102193.69;5075015;28;20043;-72
2023/09/25 02:52:43;;;;;;;0.20;0.20;;;;;;;21.10;49.57;102190.13;5075065;28;20443;-72
2023/09/25 02:55:09;;;;;;;0.10;0.10;;;;;;;21.07;49.44;102184.38;5057423;28;20024;-72
2023/09/25 02:57:35;;;;;;;0.10;0.10;;;;;;;20.63;50.72;102189.16;5074998;28;20044;-72
2023/09/25 03:00:00;;;;;;;0.10;0.10;;;;;;;20.77;50.60;102190.38;5072462;28;20468;-72
2023/09/25 03:02:26;;;;;;;0.20;0.20;;;;;;;20.99;49.75;102191.91;5074726;28;20028;-71
2023/09/25 03:04:51;;;;;;;0.20;0.20;;;;;;;20.99;49.99;102188.38;5074808;28;20028;-72
2023/09/25 03:07:17;;;;;;;0.20;0.20;;;;;;;20.39;52.00;102191.38;5074937;28;20024;-71
2023/09/25 03:09:42;;;;;;;0.25;0.25;;;;;;;20.71;51.11;102183.22;5074293;28;20028;-72
2023/09/25 03:12:07;;;;;;;0.15;0.15;;;;;;;20.83;50.60;102179.22;5074759;28;20025;-71
2023/09/25 03:14:33;;;;;;;0.20;0.20;;;;;;;20.65;51.31;102179.63;5073696;28;20040;-72
2023/09/25 03:16:58;;;;;;;0.10;0.10;;;;;;;20.32;51.83;102179.03;5074711;28;20044;-73
2023/09/25 03:19:24;;;;;;;0.20;0.20;;;;;;;20.86;50.23;102173.25;5074423;28;20024;-72
2023/09/25 03:21:49;;;;;;;0.20;0.20;;;;;;;20.53;51.02;102175.41;5074350;28;20051;-73
2023/09/25 03:24:14;;;;;;;0.20;0.20;;;;;;;20.73;50.82;102179.16;5074318;28;20032;-72
2023/09/25 03:26:40;;;;;;;0.20;0.20;;;;;;;20.92;50.02;102177.66;5056078;28;20028;-72
2023/09/25 03:29:06;;;;;;;0.20;0.20;;;;;;;20.83;50.45;102170.22;5074077;28;20054;-72
2023/09/25 03:31:32;;;;;;;0.25;0.25;;;;;;;20.96;49.88;102173.34;5072953;28;20052;-73
2023/09/25 03:33:57;;;;;;;0.20;0.20;;;;;;;20.89;50.76;102174.63;5056203;28;20040;-72
2023/09/25 03:36:22;;;;;;;0.10;0.10;;;;;;;21.25;49.53;102173.81;5073867;28;20035;-72
2023/09/25 03:38:48;;;;;;;0.10;0.10;;;;;;;20.58;50.85;102172.72;5074135;28;20449;-72
2023/09/25 03:41:13;;;;;;;0.20;0.20;;;;;;;20.77;50.76;102166.63;5073647;28;20358;-72
2023/09/25 03:43:39;;;;;;;0.10;0.10;;;;;;;21.00;49.75;102165.41;5056088;28;20031;-72
2023/09/25 03:46:04;;;;;;;0.10;0.10;;;;;;;21.10;49.88;102168.25;5072368;28;20024;-72
2023/09/25 03:48:30;;;;;;;0.10;0.10;;;;;;;20.77;50.46;102163.91;5073766;28;20074;-73
2023/09/25 03:50:56;;;;;;;0.10;0.10;;;;;;;20.88;50.00;102165.59;5073468;28;20103;-73
2023/09/25 03:53:21;;;;;;;0.20;0.20;;;;;;;20.89;50.02;102169.19;5073539;28;20039;-72
2023/09/25 03:55:47;;;;;;;0.13;0.13;;;;;;;21.22;49.34;102162.59;5073676;28;20043;-72
2023/09/25 03:58:12;;;;;;;0.20;0.20;;;;;;;20.76;50.59;102164.97;5073436;28;20028;-73
2023/09/25 04:00:38;;;;;;;0.20;0.20;;;;;;;20.84;50.79;102174.59;5053541;28;20054;-71
2023/09/25 04:03:04;;;;;;;0.10;0.10;;;;;;;20.92;49.70;102174.09;5069264;28;20059;-72
2023/09/25 04:05:29;;;;;;;0.20;0.20;;;;;;;20.90;50.01;102179.84;5072680;28;20438;-71
2023/09/25 04:07:55;;;;;;;0.20;0.20;;;;;;;20.76;50.78;102177.78;5072804;28;20024;-72
2023/09/25 04:10:20;;;;;;;0.10;0.10;;;;;;;20.87;49.96;102185.00;5072399;28;20032;-72
2023/09/25 04:12:45;;;;;;;0.10;0.10;;;;;;;20.93;50.07;102182.03;5072368;28;20480;-73
2023/09/25 04:15:14;;;;;;;0.10;0.10;;;;;;;21.00;49.40;102185.38;5071575;28;20369;-72
2023/09/25 04:17:40;;;;;;;0.15;0.15;;;;;;;20.99;49.58;102191.13;5072787;28;20115;-73
2023/09/25 04:20:15;;;;;;;0.10;0.10;;;;;;;20.96;49.87;102184.25;5072682;28;20058;-72
2023/09/25 04:22:41;;;;;;;0.10;0.10;;;;;;;21.03;49.33;102186.78;5072417;28;20040;-73
2023/09/25 04:25:08;;;;;;;0.10;0.10;;;;;;;21.25;49.39;102175.72;5073313;28;20020;-72
2023/09/25 04:27:35;;;;;;;0.17;0.17;;;;;;;21.06;49.67;102183.53;5073690;28;20048;-72
2023/09/25 04:30:02;;;;;;;0.20;0.20;;;;;;;21.12;49.42;102170.72;5072922;28;20024;-72
2023/09/25 04:32:27;;;;;;;0.20;0.20;;;;;;;21.07;49.47;102168.78;5072206;28;20028;-73
2023/09/25 04:34:52;;;;;;;0.10;0.10;;;;;;;21.10;49.09;102175.63;5073345;28;20467;-73
2023/09/25 04:37:18;;;;;;;0.10;0.10;;;;;;;20.91;49.84;102172.47;5069624;28;20020;-72
2023/09/25 04:39:44;;;;;;;0.10;0.10;;;;;;;20.74;50.25;102169.84;5061207;28;20039;-72
2023/09/25 04:42:09;;;;;;;0.20;0.20;;;;;;;20.85;49.94;102173.50;5062268;28;20024;-72
2023/09/25 04:44:35;;;;;;;0.20;0.20;;;;;;;21.08;48.98;102162.22;5057690;28;20456;-72
2023/09/25 04:47:00;;;;;;;0.10;0.10;;;;;;;20.99;49.90;102172.00;5061429;28;20144;-72
2023/09/25 04:49:26;;;;;;;0.20;0.20;;;;;;;21.22;49.22;102171.63;5063182;28;20032;-72
2023/09/25 04:51:51;;;;;;;0.10;0.10;;;;;;;21.14;49.53;102177.59;5063433;28;20025;-72
2023/09/25 04:54:17;;;;;;;0.30;0.30;;;;;;;21.02;49.60;102189.78;5062971;28;20021;-72
2023/09/25 04:56:42;;;;;;;0.20;0.20;;;;;;;21.05;49.48;102175.63;5065382;28;20405;-72
2023/09/25 04:59:08;;;;;;;0.13;0.13;;;;;;;21.05;49.32;102184.59;5057583;28;20446;-72
2023/09/25 05:01:33;;;;;;;0.20;0.20;;;;;;;21.18;48.78;102178.72;5061375;28;20028;-73
2023/09/25 05:03:58;;;;;;;0.10;0.10;;;;;;;20.91;49.71;102181.47;5065071;28;20028;-72
2023/09/25 05:06:24;;;;;;;0.20;0.20;;;;;;;21.04;49.55;102180.25;5063600;28;20078;-72
2023/09/25 05:08:49;;;;;;;0.20;0.20;;;;;;;21.09;49.44;102184.94;5071927;28;20024;-72
2023/09/25 05:11:15;;;;;;;0.20;0.20;;;;;;;21.19;49.13;102187.75;5072272;28;20417;-72
2023/09/25 05:13:40;;;;;;;0.20;0.20;;;;;;;21.30;48.77;102192.19;5072227;28;20039;-72
2023/09/25 05:16:06;;;;;;;0.20;0.20;;;;;;;21.06;49.76;102201.84;5068057;28;20020;-72
2023/09/25 05:18:31;;;;;;;0.10;0.10;;;;;;;21.20;49.49;102189.38;5070821;28;20028;-72
2023/09/25 05:20:58;;;;;;;0.20;0.20;;;;;;;20.96;49.50;102191.63;5071492;28;20040;-72
2023/09/25 05:23:24;;;;;;;0.13;0.13;;;;;;;21.22;48.73;102200.88;5070869;28;20078;-72
2023/09/25 05:25:49;;;;;;;0.10;0.10;;;;;;;21.28;48.62;102192.47;5071537;28;20039;-72
2023/09/25 05:28:15;;;;;;;0.20;0.20;;;;;;;20.96;49.42;102189.72;5059673;28;20484;-72
2023/09/25 05:30:40;;;;;;;0.20;0.20;;;;;;;20.88;49.91;102192.09;5052346;28;20036;-72
2023/09/25 05:33:06;;;;;;;0.10;0.10;;;;;;;20.78;49.93;102197.47;5071621;28;20029;-72
2023/09/25 05:35:31;;;;;;;0.10;0.10;;;;;;;20.87;49.78;102204.13;5071550;28;20032;-72
2023/09/25 05:37:57;;;;;;;0.20;0.20;;;;;;;20.98;49.46;102201.22;5072336;28;20031;-73
2023/09/25 05:40:22;;;;;;;0.20;0.20;;;;;;;20.90;49.36;102207.16;5054028;28;20053;-73
2023/09/25 05:42:49;;;;;;;0.20;0.20;;;;;;;21.21;48.84;102207.44;5072191;28;20028;-73
2023/09/25 05:45:18;;;;;;;0.20;0.20;;;;;;;21.10;49.05;102202.97;5072817;28;20483;-73
2023/09/25 05:47:44;;;;;;;0.10;0.10;;;;;;;21.27;48.54;102203.63;5071293;28;20036;-73
2023/09/25 05:50:11;;;;;;;0.20;0.20;;;;;;;21.37;48.50;102207.28;5072340;28;20031;-72
2023/09/25 05:52:38;;;;;;;0.10;0.10;;;;;;;21.22;48.21;102207.19;5072972;28;20407;-73
2023/09/25 05:55:04;;;;;;;0.17;0.17;;;;;;;21.39;48.30;102202.38;5072451;28;20525;-73
2023/09/25 05:57:30;;;;;;;0.15;0.15;;;;;;;21.30;48.75;102194.91;5071816;28;20025;-73
2023/09/25 05:59:56;;;;;;;0.10;0.10;;;;;;;21.37;48.45;102206.44;5071829;28;20021;-72
2023/09/25 06:02:21;;;;;;;0.20;0.20;;;;;;;21.40;48.21;102200.47;5067877;28;20025;-73
2023/09/25 06:04:47;;;;;;;0.20;0.20;;;;;;;21.56;48.13;102211.22;5072109;28;20021;-73
2023/09/25 06:07:13;;;;;;;0.10;0.10;;;;;;;21.48;48.27;102210.91;5072397;28;20052;-73
2023/09/25 06:09:38;;;;;;;0.10;0.10;;;;;;;21.47;48.16;102210.06;5071939;28;20160;-72
2023/09/25 06:12:04;;;;;;;0.20;0.20;;;;;;;21.37;48.29;102212.75;5071547;28;20031;-72
2023/09/25 06:14:29;;;;;;;0.10;0.10;;;;;;;21.72;47.83;102215.69;5071733;28;20464;-72
2023/09/25 06:16:56;;;;;;;0.30;0.30;;;;;;;21.48;48.16;102214.44;5070108;28;20550;-72
2023/09/25 06:19:22;;;;;;;0.10;0.10;;;;;;;21.66;47.25;102208.53;5071551;28;20086;-72
2023/09/25 06:21:48;;;;;;;0.20;0.20;;;;;;;21.80;47.57;102208.88;5070797;28;20115;-72
2023/09/25 06:24:14;;;;;;;0.10;0.10;;;;;;;21.70;47.92;102217.03;5071499;28;20021;-72
2023/09/25 06:26:40;;;;;;;0.10;0.10;;;;;;;21.91;46.72;102218.84;5071562;28;20104;-71
2023/09/25 06:29:09;;;;;;;0.10;0.10;;;;;;;21.66;48.13;102214.00;5053313;28;20661;-72
2023/09/25 06:31:36;;;;;;;0.20;0.20;;;;;;;21.80;47.41;102212.47;5070142;28;20029;-72
2023/09/25 06:34:02;;;;;;;0.20;0.20;;;;;;;21.54;48.12;102213.38;5070905;28;20024;-72
2023/09/25 06:36:28;;;;;;;0.20;0.20;;;;;;;21.78;47.71;102222.84;5075011;28;20138;-71
2023/09/25 06:38:53;;;;;;;0.10;0.10;;;;;;;22.16;46.78;102215.34;5074794;28;20135;-73
2023/09/25 06:41:18;;;;;;;0.10;0.10;;;;;;;22.15;46.01;102224.69;5075128;28;20036;-73
2023/09/25 06:43:44;;;;;;;0.10;0.10;;;;;;;21.79;46.80;102223.66;5074675;28;20418;-73
2023/09/25 06:46:09;;;;;;;0.20;0.20;;;;;;;21.93;47.44;102222.13;5074629;28;20020;-72
2023/09/25 06:48:35;;;;;;;0.20;0.20;;;;;;;22.25;46.34;102224.72;5073566;28;20085;-72
2023/09/25 06:51:01;;;;;;;0.10;0.10;;;;;;;22.43;45.84;102229.69;5075230;28;20025;-72
2023/09/25 06:53:26;;;;;;;0.10;0.10;;;;;;;22.11;46.88;102224.38;5074970;28;20119;-73
2023/09/25 06:55:52;;;;;;;0.20;0.20;;;;;;;21.98;47.28;102221.31;5074904;28;20024;-74
2023/09/25 06:58:17;;;;;;;0.17;0.17;;;;;;;22.14;47.28;102221.09;5074922;28;20074;-71
2023/09/25 07:00:45;;;;;;;0.10;0.10;;;;;;;22.27;46.91;102219.78;5074043;28;20456;-71
2023/09/25 07:03:11;;;;;;;0.10;0.10;;;;;;;22.00;46.78;102219.94;5074070;28;20095;-73
2023/09/25 07:05:36;;;;;;;0.10;0.10;;;;;;;22.37;46.20;102212.41;5075311;28;20051;-73
2023/09/25 07:08:02;;;;;;;0.20;0.20;;;;;;;22.16;46.25;102220.84;5074282;28;20033;-73
2023/09/25 07:10:27;;;;;;;0.20;0.20;;;;;;;22.58;45.36;102211.38;5074250;28;20032;-71
2023/09/25 07:12:52;;;;;;;0.10;0.10;;;;;;;22.82;45.19;102211.69;5074172;28;20043;-72
2023/09/25 07:15:18;;;;;;;0.20;0.20;;;;;;;22.62;45.43;102211.69;5074279;28;20028;-72
2023/09/25 07:17:46;;;;;;;0.20;0.20;;;;;;;22.43;45.90;102211.31;5073070;28;20557;-71
2023/09/25 07:20:12;;;;;;;0.10;0.10;;;;;;;22.93;44.77;102207.03;5073989;28;20078;-72
2023/09/25 07:22:37;;;;;;;0.20;0.20;;;;;;;23.03;44.63;102204.28;5074171;28;20040;-72
2023/09/25 07:25:03;;;;;;;0.20;0.20;;;;;;;23.26;44.62;102210.03;5073945;28;20036;-72
2023/09/25 07:27:29;;;;;;;0.20;0.20;;;;;;;22.90;44.69;102213.88;5073757;28;20115;-72
2023/09/25 07:29:54;;;;;;;0.10;0.10;;;;;;;23.01;45.64;102207.31;5073435;28;20036;-72
2023/09/25 07:32:20;;;;;;;0.10;0.10;;;;;;;23.30;44.09;102218.53;5072675;28;20446;-72
2023/09/25 07:34:45;;;;;;;0.10;0.10;;;;;;;23.31;44.41;102212.78;5073133;28;20099;-72
2023/09/25 07:37:12;;;;;;;0.10;0.10;;;;;;;23.53;43.70;102216.03;5073484;28;20089;-72
2023/09/25 07:39:40;;;;;;;0.10;0.10;;;;;;;23.42;44.01;102217.19;5073392;28;20416;-72
2023/09/25 07:42:06;;;;;;;0.10;0.10;;;;;;;23.95;42.55;102206.56;5072942;28;20021;-71
2023/09/25 07:44:33;;;;;;;0.10;0.10;;;;;;;23.28;44.32;102207.84;5073079;28;20031;-71
2023/09/25 07:47:00;;;;;;;0.10;0.10;;;;;;;23.54;43.90;102208.63;5072179;28;20024;-72
2023/09/25 07:49:27;;;;;;;0.08;0.08;;;;;;;23.94;42.48;102221.41;5071761;28;20372;-72
2023/09/25 07:51:53;;;;;;;0.20;0.20;;;;;;;23.91;43.19;102210.97;5072924;28;20039;-73
2023/09/25 07:54:19;;;;;;;0.10;0.10;;;;;;;23.93;42.50;102223.34;5072968;28;20020;-73
2023/09/25 07:56:44;;;;;;;0.10;0.10;;;;;;;23.23;43.71;102221.53;5072718;28;20036;-72
2023/09/25 07:59:10;;;;;;;0.10;0.10;;;;;;;23.11;44.86;102221.03;5072827;28;20446;-72
2023/09/25 08:01:39;;;;;;;0.10;0.10;;;;;;;23.50;44.07;102218.53;5072569;28;20023;-72
2023/09/25 08:04:05;;;;;;;0.10;0.10;;;;;;;23.73;43.59;102220.66;5071873;28;20056;-72
2023/09/25 08:06:30;;;;;;;0.13;0.13;;;;;;;23.62;43.71;102221.78;5074037;28;20086;-72
2023/09/25 08:08:59;;;;;;;0.10;0.10;;;;;;;22.86;44.63;102222.94;5073804;28;20024;-73
2023/09/25 08:11:25;;;;;;;0.10;0.10;;;;;;;23.45;43.80;102224.84;5073852;28;20112;-72
2023/09/25 08:13:53;;;;;;;0.10;0.10;;;;;;;24.11;42.25;102220.00;5073640;28;20472;-73
2023/09/25 08:16:18;;;;;;;0.10;0.10;;;;;;;23.40;43.73;102224.84;5073394;28;20051;-71
2023/09/25 08:18:45;;;;;;;0.10;0.10;;;;;;;23.73;43.49;102222.56;5053957;28;20036;-72
2023/09/25 08:21:10;;;;;;;0.20;0.20;;;;;;;24.10;41.72;102223.84;5073240;28;20044;-72
2023/09/25 08:23:36;;;;;;;0.10;0.10;;;;;;;23.62;43.11;102218.22;5073518;28;20024;-72
2023/09/25 08:26:05;;;;;;;0.10;0.10;;;;;;;23.93;42.87;102215.09;5073388;28;20024;-71
2023/09/25 08:28:31;;;;;;;0.10;0.10;;;;;;;23.66;43.33;102219.31;5054903;28;20039;-72
2023/09/25 08:30:56;;;;;;;0.20;0.20;;;;;;;24.58;41.29;102216.69;5072761;28;20020;-72
2023/09/25 08:33:22;;;;;;;0.10;0.10;;;;;;;23.79;41.99;102219.53;5072563;28;20040;-72
2023/09/25 08:35:47;;;;;;;0.10;0.10;;;;;;;24.04;41.86;102215.88;5073314;28;20029;-72
2023/09/25 08:38:13;;;;;;;0.10;0.10;;;;;;;24.68;40.62;102219.38;5073352;28;20039;-72
2023/09/25 08:40:44;;;;;;;0.10;0.10;;;;;;;25.30;40.13;102220.53;5073608;28;20017;-71
2023/09/25 08:43:09;;;;;;;;;;;;;;;25.46;39.54;102211.03;5074303;28;20036;-72
2023/09/25 08:45:35;;;;;;;0.10;0.10;;;;;;;24.29;40.88;102204.78;5067299;28;20291;-72
2023/09/25 08:48:00;;;;;;;0.10;0.10;;;;;;;24.51;40.29;102204.38;5072474;28;20040;-72
2023/09/25 08:50:26;;;;;;;0.10;0.10;;;;;;;25.26;39.77;102203.78;5057012;28;20036;-72
2023/09/25 08:52:51;;;;;;;0.10;0.10;;;;;;;25.03;39.45;102199.88;5052509;28;20029;-72
2023/09/25 08:55:17;;;;;;;0.10;0.10;;;;;;;24.47;40.86;102203.31;5052658;28;20032;-72
2023/09/25 08:57:42;;;;;;;0.00;0.00;;;;;;;25.17;38.95;102208.28;5052037;28;20029;-72
2023/09/25 09:00:11;;;;;;;0.00;0.00;;;;;;;24.71;40.32;102206.97;5052441;28;20091;-71
2023/09/25 09:02:40;;;;;;;0.10;0.10;;;;;;;25.55;38.70;102212.06;5049141;28;20048;-72
2023/09/25 09:05:06;;;;;;;0.03;0.03;;;;;;;24.39;41.09;102202.78;5070938;28;20024;-70
2023/09/25 09:07:32;;;;;;;0.00;0.00;;;;;;;24.71;39.93;102209.72;5054075;28;20048;-72
2023/09/25 09:09:57;;;;;;;0.10;0.10;;;;;;;24.75;40.73;102205.31;5072670;28;20044;-72
2023/09/25 09:12:22;;;;;;;0.10;0.10;;;;;;;25.58;38.51;102212.28;5053801;28;20093;-72
2023/09/25 09:14:48;;;;;;;0.00;0.00;;;;;;;24.87;39.63;102187.34;5071415;28;20047;-70
2023/09/25 09:17:14;;;;;;;0.00;0.00;;;;;;;25.38;39.14;102195.13;5071733;28;20036;-72
2023/09/25 09:19:45;;;;;;;0.00;0.00;;;;;;;26.05;37.37;102195.72;5071522;28;20116;-72
2023/09/25 09:22:12;;;;;;;0.10;0.10;;;;;;;25.71;37.82;102197.81;5072356;28;20158;-71
2023/09/25 09:24:39;;;;;;;0.00;0.00;;;;;;;25.80;38.16;102189.72;5071833;28;20103;-72
2023/09/25 09:27:07;;;;;;;0.10;0.10;;;;;;;25.11;38.69;102198.41;5072316;28;20079;-70
2023/09/25 09:29:43;;;;;;;0.00;0.00;;;;;;;25.93;38.10;102194.50;5072335;28;20413;-72
2023/09/25 09:32:09;;;;;;;0.00;0.00;;;;;;;26.23;36.84;102185.03;5072268;28;20058;-72
2023/09/25 09:34:36;;;;;;;0.10;0.10;;;;;;;26.56;36.01;102190.34;5070125;28;20040;-72
2023/09/25 09:37:02;;;;;;;0.00;0.00;;;;;;;25.90;38.04;102184.91;5072040;28;20539;-72
2023/09/25 09:39:34;;;;;;;0.10;0.10;;;;;;;25.97;37.04;102190.88;5054494;28;20128;-72
2023/09/25 09:42:04;;;;;;;0.00;0.00;;;;;;;25.92;37.92;102190.94;5052006;28;20029;-71
2023/09/25 09:44:29;;;;;;;0.00;0.00;;;;;;;26.40;37.01;102188.09;5049089;28;20043;-71
2023/09/25 09:46:55;;;;;;;0.00;0.00;;;;;;;26.24;37.76;102198.53;5071639;28;20030;-71
2023/09/25 09:49:23;;;;;;;0.00;0.00;;;;;;;26.61;36.69;102193.00;5070906;28;20056;-71
2023/09/25 09:51:50;;;;;;;0.00;0.00;;;;;;;26.59;37.06;102194.44;5071890;28;20476;-71
2023/09/25 09:54:18;;;;;;;0.00;0.00;;;;;;;26.46;36.57;102201.50;5071819;28;20024;-72
2023/09/25 09:56:47;;;;;;;0.00;0.00;;;;;;;26.31;36.85;102217.47;5071694;28;20108;-72
2023/09/25 09:59:13;;;;;;;0.00;0.00;;;;;;;27.23;35.98;102215.72;5071749;28;20103;-72
2023/09/25 10:01:45;;;;;;;0.00;0.00;;;;;;;26.39;37.67;102216.78;5071786;28;20028;-71
2023/09/25 10:04:12;;;;;;;0.00;0.00;;;;;;;26.21;38.37;102215.66;5070668;28;20040;-73
2023/09/25 10:07:00;;;;;;;0.00;0.00;;;;;;;27.46;36.33;102201.78;5071885;28;20030;-72
2023/09/25 10:09:26;;;;;;;0.00;0.00;;;;;;;27.03;35.37;102205.06;5072354;28;20027;-71
2023/09/25 10:11:54;;;;;;;0.00;0.00;;;;;;;26.52;37.77;102210.53;5075370;28;20533;-72
2023/09/25 10:14:21;;;;;;;0.00;0.00;;;;;;;26.65;36.84;102220.81;5075759;28;20097;-71
2023/09/25 10:16:53;;;;;;;0.00;0.00;;;;;;;25.74;38.17;102211.00;5075018;28;20032;-70
2023/09/25 10:19:22;;;;;;;0.03;0.03;;;;;;;26.71;36.54;102214.13;5074205;28;20468;-72
2023/09/25 10:22:06;;;;;;;0.00;0.00;;;;;;;28.15;35.76;102208.94;5075003;28;20044;-71
2023/09/25 10:24:33;;;;;;;0.00;0.00;;;;;;;27.82;35.56;102210.19;5075461;28;20044;-72
2023/09/25 10:26:59;;;;;;;0.00;0.00;;;;;;;27.09;35.27;102209.34;5075466;28;20020;-71
2023/09/25 10:29:24;;;;;;;0.00;0.00;;;;;;;27.93;35.44;102203.31;5075082;28;20025;-72
2023/09/25 10:31:49;;;;;;;0.00;0.00;;;;;;;28.53;34.54;102210.31;5075072;28;20028;-72
2023/09/25 10:34:16;;;;;;;0.00;0.00;;;;;;;28.35;34.39;102208.50;5075035;28;20017;-72
2023/09/25 10:36:44;;;;;;;0.00;0.00;;;;;;;27.85;34.63;102208.75;5074335;28;20180;-71
2023/09/25 10:39:13;;;;;;;0.00;0.00;;;;;;;27.96;34.60;102212.97;5039819;28;20047;-71
2023/09/25 10:41:39;;;;;;;0.00;0.00;;;;;;;26.82;36.89;102215.59;5074979;28;20020;-70
2023/09/25 10:44:05;;;;;;;0.00;0.00;;;;;;;27.72;34.91;102218.69;5053400;28;20070;-72
2023/09/25 10:46:30;;;;;;;0.00;0.00;;;;;;;28.55;34.06;102221.06;5041655;28;20056;-72
2023/09/25 10:48:57;;;;;;;0.00;0.00;;;;;;;28.87;33.81;102215.31;5073658;28;20020;-72
2023/09/25 10:51:22;;;;;;;0.00;0.00;;;;;;;28.76;33.96;102218.63;5072181;28;20493;-71
2023/09/25 10:53:48;;;;;;;0.00;0.00;;;;;;;28.54;34.41;102206.41;5072806;28;20043;-71
2023/09/25 10:56:14;;;;;;;0.00;0.00;;;;;;;27.92;34.90;102207.22;5072058;28;20043;-71
2023/09/25 10:58:40;;;;;;;0.00;0.00;;;;;;;28.15;35.29;102208.13;5073851;28;20028;-71
2023/09/25 11:01:05;;;;;;;0.00;0.00;;;;;;;28.50;34.44;102210.13;5074588;28;20070;-71
2023/09/25 11:03:31;;;;;;;0.00;0.00;;;;;;;28.50;33.73;102216.44;5074612;28;20395;-72
2023/09/25 11:05:58;;;;;;;0.00;0.00;;;;;;;28.98;33.14;102207.56;5074612;28;20059;-71
2023/09/25 11:08:26;;;;;;;0.00;0.00;;;;;;;27.95;33.77;102209.38;5074326;28;20401;-71
2023/09/25 11:10:51;;;;;;;0.00;0.00;;;;;;;28.83;32.82;102207.97;5074189;28;20020;-71
2023/09/25 11:13:17;;;;;;;0.00;0.00;;;;;;;29.30;32.34;102212.84;5074508;28;20051;-71
2023/09/25 11:15:44;;;;;;;0.00;0.00;;;;;;;29.15;33.15;102219.59;5073076;28;20028;-71
2023/09/25 11:18:10;;;;;;;0.00;0.00;;;;;;;29.87;31.81;102219.31;5073800;28;20038;-72
2023/09/25 11:20:37;;;;;;;0.00;0.00;;;;;;;29.59;32.04;102215.09;5073636;28;20036;-71